Latest Weather Observations for Sheffield

IDT60801

Issued at 9:32 pm EST Friday 30 September 2016 (issued every 30 minutes, with the page automatically refreshed every 10 minutes)

About weather observations | Map of weather stations | Latest weather observations for TAS | Other Formats
Station Details ID: 091291 Name: SHEFFIELD SCHOOL FARM Lat: -41.39 Lon: 146.32 Height: 294.2 m
Data from the previous 72 hours. | See also: Recent months at Sheffield
Date/Time
EST
Temp
°C
App
Temp
°C
Dew
Point
°C
Rel
Hum
%
Delta-T
°C
Wind Press
QNH
hPa
Press
MSL
hPa
Rain since
9am
mm
Dir  Spd
km/h
Gust
km/h
Spd
kts
Gust
kts
30/09:30pm 5.9 3.1 5.0 94 0.4 NNW 9 11 5 6 994.2 994.4 11.8
30/09:00pm 6.0 3.6 5.1 94 0.4 N 7 11 4 6 994.2 994.4 10.4
30/08:30pm 6.0 3.2 5.0 93 0.4 NNW 9 13 5 7 994.0 994.3 8.8
30/08:00pm 6.2 2.6 4.8 91 0.6 NW 13 19 7 10 993.7 994.0 7.8
30/07:30pm 6.3 2.2 4.5 88 0.8 NW 15 19 8 10 993.2 993.4 7.2
30/07:00pm 6.6 1.2 4.3 85 1.0 WNW 22 35 12 19 992.7 992.9 6.8
30/06:30pm 7.0 2.3 5.3 89 0.8 NW 19 32 10 17 992.3 992.5 6.4
30/06:00pm 7.2 3.9 6.5 95 0.3 NW 13 22 7 12 991.9 992.1 5.8
30/05:30pm 7.3 4.4 6.4 94 0.4 NNW 11 13 6 7 991.4 991.6 4.8
30/05:00pm 7.4 5.2 6.3 93 0.5 NNW 7 11 4 6 991.1 991.3 3.8
30/04:30pm 7.4 4.8 5.9 90 0.7 NW 9 15 5 8 990.9 991.1 2.8
30/04:00pm 7.5 4.8 5.6 88 0.9 NW 9 15 5 8 990.7 990.8 1.4
30/03:30pm 7.8 3.9 5.4 85 1.1 WNW 15 19 8 10 990.4 990.6 1.0
30/03:00pm 8.0 2.0 5.1 82 1.3 NW 26 35 14 19 990.3 990.5 0.8
30/02:30pm 8.5 2.8 4.7 77 1.7 WNW 24 33 13 18 990.3 990.5 0.4
30/02:00pm 8.3 2.2 4.7 78 1.6 W 26 37 14 20 990.2 990.4 0.4
30/01:30pm 8.0 2.0 5.1 82 1.3 W 26 39 14 21 990.2 990.4 0.4
30/01:00pm 8.2 1.3 4.6 78 1.6 WSW 30 39 16 21 990.1 990.3 0.2
30/12:30pm 8.4 2.6 4.6 77 1.7 WSW 24 30 13 16 990.2 990.4 0.0
30/12:00pm 9.2 4.2 4.6 73 2.1 WSW 20 30 11 16 989.8 990.0 0.0
30/11:30am 9.3 6.5 5.3 76 1.8 W 9 19 5 10 989.9 990.1 0.0
30/11:00am 9.0 4.6 4.6 74 2.0 WSW 17 28 9 15 989.7 989.9 0.0
30/10:30am 8.6 6.5 6.6 87 0.9 N 7 11 4 6 989.8 990.0 0.0
30/10:00am 8.4 6.4 6.2 86 1.0 NE 6 11 3 6 989.7 989.9 0.0
30/09:30am 7.7 5.7 6.3 91 0.6 NNW 6 7 3 4 989.8 990.0 0.0
30/09:00am 7.2 5.3 6.6 96 0.3 N 6 9 3 5 989.7 989.9 63.2
30/08:30am 6.5 5.2 6.2 98 0.1 NE 2 4 1 2 989.8 990.0 63.2
30/08:00am 5.8 4.8 5.5 98 0.1 CALM 0 0 0 0 989.9 990.1 63.2
30/07:30am 5.8 4.8 5.5 98 0.1 CALM 0 0 0 0 990.1 990.3 63.2
30/07:00am 5.6 3.8 5.3 98 0.1 N 4 6 2 3 990.4 990.6 63.2
30/06:30am 5.2 4.1 4.9 98 0.1 CALM 0 0 0 0 990.2 990.4 63.2
30/06:00am 5.1 2.6 4.8 98 0.1 NNW 7 9 4 5 990.0 990.2 63.2
30/05:30am 5.0 3.4 4.7 98 0.1 N 2 6 1 3 990.0 990.2 63.2
30/05:00am 4.4 1.8 4.1 98 0.1 NNW 7 9 4 5 989.7 989.9 63.2
30/04:30am 4.9 3.7 4.6 98 0.1 CALM 0 0 0 0 990.0 990.2 63.2
30/04:00am 4.1 1.6 3.8 98 0.1 NNW 6 6 3 3 990.4 990.6 63.2
30/03:30am 4.2 1.7 3.9 98 0.1 WNW 6 7 3 4 990.4 990.6 63.2
30/03:00am 4.5 2.1 4.2 98 0.1 W 6 6 3 3 990.7 990.8 63.2
30/02:30am 4.8 2.4 4.5 98 0.1 SW 6 7 3 4 991.0 991.2 63.2
30/02:00am 4.8 2.3 4.5 98 0.1 SSW 7 11 4 6 991.1 991.3 63.2
30/01:30am 5.0 2.5 4.6 97 0.2 WSW 7 7 4 4 991.7 991.9 63.2
30/01:00am 5.4 3.1 5.0 97 0.2 S 6 7 3 4 992.1 992.3 63.2
30/12:30am 5.5 3.6 5.1 97 0.2 S 4 6 2 3 992.0 992.2 63.2
30/12:00am 6.8 5.2 6.4 97 0.2 SSE 4 4 2 2 991.9 992.1 63.0
 
Date/Time
EST
Temp
°C
App
Temp
°C
Dew
Point
°C
Rel
Hum
%
Delta-T
°C
Wind Press
QNH
hPa
Press
MSL
hPa
Rain since
9am
mm
Dir  Spd
km/h
Gust
km/h
Spd
kts
Gust
kts
29/11:30pm 6.1 4.7 5.7 97 0.2 SSE 2 4 1 2 992.1 992.3 63.0
29/11:00pm 6.3 4.6 5.7 96 0.3 ESE 4 6 2 3 992.0 992.2 63.0
29/10:30pm 6.7 5.0 6.1 96 0.3 SE 4 6 2 3 992.0 992.2 63.0
29/10:00pm 6.9 6.1 6.3 96 0.3 CALM 0 0 0 0 991.8 992.0 63.0
29/09:30pm 7.2 6.4 6.5 95 0.3 CALM 0 0 0 0 991.6 991.8 63.0
29/09:00pm 7.7 6.9 6.6 93 0.5 CALM 0 0 0 0 991.7 991.9 63.0
29/08:30pm 7.7 6.1 6.5 92 0.6 NNE 4 6 2 3 991.9 992.1 63.0
29/08:00pm 7.9 6.0 6.7 92 0.6 SSW 6 7 3 4 990.8 990.9 63.0
29/07:30pm 8.1 5.7 7.2 94 0.4 W 9 13 5 7 990.8 990.9 63.0
29/07:00pm 8.5 5.1 7.6 94 0.4 NW 15 22 8 12 990.9 991.1 61.0
29/06:30pm 8.8 3.4 8.0 95 0.4 NW 26 37 14 20 989.4 989.6 59.2
29/06:00pm 10.1 7.5 9.5 96 0.3 ENE 13 19 7 10 988.7 988.9 57.0
29/05:30pm 10.0 6.7 9.4 96 0.3 E 17 22 9 12 988.2 988.4 56.0
29/05:00pm 10.1 8.3 9.5 96 0.3 ENE 9 19 5 10 988.1 988.3 54.2
29/04:30pm 10.3 8.2 9.7 96 0.3 ESE 11 17 6 9 987.9 988.0 52.2
29/04:00pm 10.4 7.1 9.5 94 0.5 ENE 17 24 9 13 988.2 988.4 49.4
29/03:30pm 10.8 4.5 9.7 93 0.6 E 33 50 18 27 987.9 988.0 43.0
29/03:14pm 10.9 5.6 9.8 93 0.6 E 28 46 15 25 988.1 988.3 41.4
29/03:00pm 10.9 6.4 10.1 95 0.4 E 24 41 13 22 988.7 988.9 39.4
29/02:57pm 10.8 7.1 10.2 96 0.3 E 20 41 11 22 988.7 988.9 38.8
29/02:30pm 10.9 8.5 10.1 95 0.4 ESE 13 19 7 10 988.9 989.1 27.8
29/02:00pm 11.0 7.3 10.1 94 0.5 ENE 20 32 11 17 989.5 989.7 23.6
29/01:30pm 11.0 7.4 9.8 92 0.6 ENE 19 37 10 20 990.1 990.3 17.2
29/01:00pm 11.3 6.3 9.7 90 0.8 ENE 26 43 14 23 990.6 990.7 13.8
29/12:49pm 11.5 5.4 9.8 89 0.9 NE 32 54 17 29 991.0 991.2 13.2
29/12:47pm 11.5 5.4 9.6 88 1.0 NE 32 54 17 29 990.9 991.1 13.2
29/12:44pm 11.4 6.5 10.0 91 0.7 NE 26 52 14 28 991.0 991.2 13.0
29/12:30pm 11.7 6.4 9.8 88 1.0 NNE 28 41 15 22 991.0 991.2 12.2
29/12:00pm 11.8 7.3 10.0 89 0.9 NNE 24 39 13 21 991.5 991.7 10.2
29/11:30am 12.0 6.3 9.7 86 1.2 NNE 30 48 16 26 991.7 991.9 9.4
29/11:10am 12.2 7.1 10.6 90 0.8 NNE 28 50 15 27 991.9 992.1 9.0
29/11:00am 12.1 6.2 10.5 90 0.8 NE 32 46 17 25 992.0 992.2 8.8
29/10:39am 12.2 7.1 10.6 90 0.8 NE 28 61 15 33 992.2 992.4 6.8
29/10:30am 12.3 6.8 10.7 90 0.8 NE 30 44 16 24 992.4 992.6 6.4
29/10:17am 12.1 7.0 10.7 91 0.7 NE 28 54 15 29 992.6 992.8 6.0
29/10:00am 11.9 8.0 10.8 93 0.6 NE 22 37 12 20 992.7 992.9 5.0
29/09:30am 11.9 7.6 10.8 93 0.6 ENE 24 39 13 21 993.1 993.3 2.8
29/09:00am 11.9 7.8 10.1 89 0.9 ENE 22 32 12 17 993.5 993.7 3.8
29/08:30am 11.3 8.7 9.2 87 1.1 E 13 22 7 12 993.9 994.2 1.0
29/08:00am 10.7 7.1 8.3 85 1.2 ESE 17 20 9 11 994.2 994.4 0.0
29/07:30am 10.5 7.6 8.1 85 1.2 ESE 13 17 7 9 995.1 995.3 0.0
29/07:00am 10.3 5.9 7.5 83 1.4 ESE 20 26 11 14 995.2 995.4 0.0
29/06:30am 10.2 5.7 7.1 81 1.5 ESE 20 28 11 15 995.6 995.8 0.0
29/06:00am 9.8 5.2 6.5 80 1.6 ESE 20 24 11 13 995.6 995.8 0.0
29/05:30am 9.7 4.4 6.6 81 1.5 ESE 24 33 13 18 995.8 996.0 0.0
29/05:00am 9.6 3.8 6.3 80 1.6 ESE 26 39 14 21 996.1 996.3 0.0
29/04:30am 9.7 3.6 6.4 80 1.6 ESE 28 33 15 18 996.8 997.1 0.0
29/04:00am 9.4 4.4 6.3 81 1.5 ESE 22 30 12 16 997.4 997.7 0.0
29/03:30am 9.2 4.2 6.5 83 1.3 ESE 22 30 12 16 998.2 998.4 0.0
29/03:00am 9.3 4.0 6.6 83 1.3 ESE 24 30 13 16 998.8 999.0 0.0
29/02:30am 9.0 3.2 6.3 83 1.3 SE 26 32 14 17 999.1 999.3 0.0
29/02:00am 8.9 3.9 6.3 84 1.2 ESE 22 30 12 16 1000.0 1000.3 0.0
29/01:30am 8.6 3.5 6.1 84 1.2 ESE 22 30 12 16 1000.8 1001.1 0.0
29/01:00am 8.3 4.6 6.4 88 0.9 ESE 15 22 8 12 1001.9 1002.1 0.0
29/12:30am 8.0 3.9 6.3 89 0.8 SE 17 22 9 12 1002.4 1002.7 0.0
29/12:00am 8.1 3.5 6.6 90 0.7 SE 20 24 11 13 1002.8 1003.1 0.0
 
Date/Time
EST
Temp
°C
App
Temp
°C
Dew
Point
°C
Rel
Hum
%
Delta-T
°C
Wind Press
QNH
hPa
Press
MSL
hPa
Rain since
9am
mm
Dir  Spd
km/h
Gust
km/h
Spd
kts
Gust
kts
28/11:30pm 7.8 4.9 6.4 91 0.7 ESE 11 15 6 8 1003.5 1003.8 0.0
28/11:00pm 7.9 4.6 6.4 90 0.7 SE 13 17 7 9 1003.6 1003.9 0.0
28/10:30pm 8.1 4.5 6.7 91 0.7 ESE 15 19 8 10 1003.9 1004.2 0.0
28/10:00pm 7.9 4.3 6.8 93 0.5 SE 15 19 8 10 1004.3 1004.6 0.0
28/09:30pm 7.7 4.9 6.8 94 0.4 SE 11 15 6 8 1004.7 1005.0 0.0
28/09:00pm 8.2 5.8 7.1 93 0.5 SSE 9 11 5 6 1005.2 1005.5 0.0
28/08:30pm 7.9 5.8 6.7 92 0.6 ESE 7 9 4 5 1005.4 1005.7 0.0
28/08:00pm 8.0 6.1 6.5 90 0.7 ESE 6 9 3 5 1005.6 1005.9 0.0
28/07:30pm 8.0 6.7 6.0 87 0.9 ESE 2 4 1 2 1005.8 1006.1 0.0
28/07:00pm 8.5 7.1 5.6 82 1.3 SE 2 6 1 3 1005.6 1005.9 0.0
28/06:30pm 9.0 7.6 5.6 79 1.6 NNE 2 6 1 3 1005.5 1005.8 0.0
28/06:00pm 9.4 7.2 5.4 76 1.9 NNE 6 7 3 4 1005.2 1005.5 0.0
28/05:30pm 10.2 7.7 5.0 70 2.4 N 7 11 4 6 1004.9 1005.1 0.0
28/05:00pm 10.6 7.1 5.4 70 2.4 NNW 13 19 7 10 1005.3 1005.6 0.0
28/04:30pm 11.8 7.9 5.4 65 3.0 NNW 15 22 8 12 1005.3 1005.6 0.0
28/04:00pm 12.5 9.1 5.9 64 3.2 N 13 20 7 11 1004.6 1004.9 0.0
28/03:30pm 12.6 9.1 5.5 62 3.4 NNW 13 19 7 10 1004.6 1004.9 0.0
28/03:00pm 12.6 9.3 4.6 58 3.7 NNW 11 17 6 9 1005.3 1005.6 0.0
28/02:30pm 12.6 8.2 4.6 58 3.7 NNW 17 22 9 12 1006.0 1006.3 0.0
28/02:00pm 13.0 8.6 4.9 58 3.8 NNW 17 22 9 12 1006.7 1007.0 0.0
28/01:30pm 13.2 9.3 5.4 59 3.7 NNW 15 24 8 13 1007.1 1007.4 0.0
28/01:00pm 13.3 9.4 5.5 59 3.7 NNW 15 22 8 12 1007.3 1007.6 0.0
28/12:30pm 13.4 9.6 5.6 59 3.7 NNW 15 22 8 12 1007.7 1008.0 0.0
28/12:00pm 13.4 11.1 5.8 60 3.7 NW 7 13 4 7 1008.0 1008.4 0.0
28/11:30am 13.3 10.6 3.7 52 4.4 NW 7 17 4 9 1008.5 1008.8 0.0
28/11:00am 12.7 10.1 4.2 56 3.9 NNW 7 11 4 6 1008.9 1009.2 0.0
28/10:30am 11.9 9.0 2.4 52 4.2 N 7 15 4 8 1009.2 1009.5 0.0
28/10:00am 11.6 9.6 4.3 61 3.4 NW 4 9 2 5 1009.2 1009.5 0.0
28/09:30am 11.9 10.2 5.8 66 2.9 E 4 6 2 3 1009.6 1009.9 0.0
28/09:00am 11.4 10.2 6.3 71 2.4 E 2 6 1 3 1009.8 1010.1 0.0
28/08:30am 9.4 8.0 5.4 76 1.8 NNW 2 4 1 2 1009.9 1010.2 0.0
28/08:00am 8.6 7.2 5.5 81 1.4 NNW 2 6 1 3 1010.0 1010.3 0.0
28/07:30am 7.3 5.6 6.1 92 0.6 NW 4 6 2 3 1010.0 1010.3 0.0
28/07:00am 6.2 4.4 5.6 96 0.3 N 4 6 2 3 1009.9 1010.2 0.0
28/06:30am 5.3 3.0 4.9 97 0.2 N 6 6 3 3 1009.7 1010.0 0.0
28/06:00am 5.2 3.3 4.8 97 0.2 NNW 4 6 2 3 1009.4 1009.7 0.0
28/05:30am 5.1 2.8 4.7 97 0.2 NW 6 6 3 3 1009.1 1009.4 0.0
28/05:00am 5.1 2.6 4.5 96 0.3 NNW 7 9 4 5 1009.1 1009.4 0.0
28/04:30am 5.6 3.1 5.0 96 0.3 NNW 7 9 4 5 1008.9 1009.2 0.0
28/04:00am 6.4 4.1 5.8 96 0.3 NNW 7 9 4 5 1008.7 1009.0 0.0
28/03:30am 7.3 5.4 6.7 96 0.3 NW 6 9 3 5 1008.8 1009.1 0.0
28/03:00am 7.4 5.5 6.7 95 0.3 NNW 6 9 3 5 1008.4 1008.7 0.0
28/02:30am 7.7 5.3 6.8 94 0.4 NNW 9 11 5 6 1008.5 1008.8 0.0
28/02:00am 7.8 5.3 6.6 92 0.6 NNW 9 13 5 7 1008.7 1009.0 0.0
28/01:30am 8.2 5.7 6.5 89 0.8 NW 9 13 5 7 1008.9 1009.2 0.0
28/01:00am 7.8 4.8 6.1 89 0.8 NW 11 15 6 8 1009.0 1009.3 0.0
28/12:30am 7.6 4.5 5.7 88 0.9 NW 11 15 6 8 1009.1 1009.4 0.0
28/12:00am 7.0 5.3 3.8 80 1.4 NW 2 6 1 3 1009.2 1009.5 0.0
 
Date/Time
EST
Temp
°C
App
Temp
°C
Dew
Point
°C
Rel
Hum
%
Delta-T
°C
Wind Press
QNH
hPa
Press
MSL
hPa
Rain since
9am
mm
Dir  Spd
km/h
Gust
km/h
Spd
kts
Gust
kts
27/11:30pm 6.5 4.0 3.8 83 1.2 WNW 6 11 3 6 1009.1 1009.4 0.0
27/11:00pm 6.5 3.8 3.7 82 1.2 WNW 7 11 4 6 1008.8 1009.1 0.0
27/10:30pm 5.7 2.6 3.7 87 0.9 NW 9 11 5 6 1008.9 1009.2 0.0
27/10:00pm 6.8 3.9 4.5 85 1.0 WNW 9 11 5 6 1008.8 1009.1 0.0

Other Formats:

Comma delimited format used in spreadsheet applications
http://www.bom.gov.au/fwo/IDT60801/IDT60801.94955.axf

JavaScript Object Notation format (JSON) in row-major order
http://www.bom.gov.au/fwo/IDT60801/IDT60801.94955.json